Time;durP1;ratioP1;P1;durP2;ratioP2;P2;SDS_P1;SDS_P2;PMS_P1;PMS_P2;Temp;Humidity;BMP_temperature;BMP_pressure;BME280_temperature;BME280_humidity;BME280_pressure;Samples;Min_cycle;Max_cycle;Signal;HPM_P1;HPM_P2
2023/05/27 00:01:22;;;;;;;3.83;1.85;;;;;;;21.84;57.95;98624.66;5036996;28;20048;-74
2023/05/27 00:03:47;;;;;;;4.70;2.05;;;;;;;21.83;57.91;98619.53;5036676;28;20041;-75
2023/05/27 00:06:13;;;;;;;2.92;1.92;;;;;;;21.83;58.06;98624.88;5052990;28;20413;-75
2023/05/27 00:08:38;;;;;;;3.88;1.80;;;;;;;21.74;57.74;98613.53;5036563;28;20025;-76
2023/05/27 00:11:04;;;;;;;3.17;1.98;;;;;;;21.81;57.81;98619.75;5054724;28;20040;-75
2023/05/27 00:13:30;;;;;;;2.75;1.88;;;;;;;21.82;58.06;98615.22;5036273;28;20474;-75
2023/05/27 00:15:56;;;;;;;5.00;2.10;;;;;;;21.81;57.78;98611.75;5054611;28;20044;-75
2023/05/27 00:18:21;;;;;;;5.07;1.90;;;;;;;21.82;57.91;98609.91;5052991;28;20025;-74
2023/05/27 00:20:48;;;;;;;2.47;1.85;;;;;;;21.81;57.87;98606.44;5052848;28;20035;-75
2023/05/27 00:23:14;;;;;;;3.20;1.80;;;;;;;21.82;57.95;98599.28;5019729;28;20036;-76
2023/05/27 00:25:40;;;;;;;3.75;1.92;;;;;;;21.83;57.93;98598.28;5018915;28;20045;-74
2023/05/27 00:28:06;;;;;;;4.28;1.90;;;;;;;21.81;57.71;98597.66;5036557;28;20071;-75
2023/05/27 00:30:32;;;;;;;3.53;2.00;;;;;;;21.80;57.58;98593.38;5019628;28;20033;-75
2023/05/27 00:32:58;;;;;;;2.58;1.90;;;;;;;21.79;57.71;98583.75;5053466;28;20096;-76
2023/05/27 00:35:23;;;;;;;6.00;1.92;;;;;;;21.78;57.85;98582.94;5019743;28;20028;-75
2023/05/27 00:37:49;;;;;;;2.58;1.80;;;;;;;21.77;57.40;98575.16;5036138;28;20495;-74
2023/05/27 00:40:15;;;;;;;4.25;1.83;;;;;;;21.75;57.55;98572.69;5036084;28;20048;-75
2023/05/27 00:42:40;;;;;;;5.70;2.15;;;;;;;21.73;57.63;98568.56;5036009;28;20079;-73
2023/05/27 00:45:07;;;;;;;3.88;1.85;;;;;;;21.69;57.66;98566.28;5052877;28;20048;-74
2023/05/27 00:47:32;;;;;;;4.93;2.10;;;;;;;21.70;57.39;98575.09;5052610;28;20033;-74
2023/05/27 00:49:58;;;;;;;2.75;1.77;;;;;;;21.68;57.64;98577.16;5052877;28;20037;-75
2023/05/27 00:52:24;;;;;;;6.22;1.75;;;;;;;21.64;57.38;98571.38;5019396;28;20040;-75
2023/05/27 00:54:53;;;;;;;4.68;2.17;;;;;;;21.65;57.41;98566.91;5053064;28;20033;-75
2023/05/27 00:57:19;;;;;;;5.07;2.30;;;;;;;21.60;57.77;98553.34;5036395;28;20024;-75
2023/05/27 00:59:45;;;;;;;4.05;2.10;;;;;;;21.60;57.62;98563.97;5052261;28;20067;-75
2023/05/27 01:02:10;;;;;;;3.53;2.20;;;;;;;21.60;57.40;98554.19;5035500;28;20033;-74
2023/05/27 01:04:36;;;;;;;4.53;2.00;;;;;;;21.58;57.67;98550.88;5052442;28;20404;-74
2023/05/27 01:07:16;;;;;;;4.80;1.80;;;;;;;21.57;57.51;98546.63;5052332;28;20094;-75
2023/05/27 01:10:03;;;;;;;3.47;2.00;;;;;;;21.58;57.75;98537.59;5036943;28;20067;-75
2023/05/27 01:12:35;;;;;;;4.18;1.90;;;;;;;21.55;57.46;98548.63;5051996;28;20039;-74
2023/05/27 01:15:00;;;;;;;4.90;2.10;;;;;;;21.55;57.43;98550.47;5019061;28;20048;-74
2023/05/27 01:17:29;;;;;;;2.90;2.13;;;;;;;21.54;57.54;98544.34;5018882;28;20047;-74
2023/05/27 01:19:54;;;;;;;4.45;1.95;;;;;;;21.53;57.55;98552.50;5035993;28;20033;-74
2023/05/27 01:22:22;;;;;;;3.95;2.00;;;;;;;21.52;57.38;98554.31;5035508;28;20118;-74
2023/05/27 01:24:49;;;;;;;4.85;1.88;;;;;;;21.51;57.55;98555.34;5019476;28;20498;-74
2023/05/27 01:27:15;;;;;;;3.47;2.30;;;;;;;21.50;57.30;98551.84;5034936;28;20049;-73
2023/05/27 01:29:41;;;;;;;2.50;2.00;;;;;;;21.49;57.62;98547.56;5035336;28;20027;-73
2023/05/27 01:32:16;;;;;;;2.92;2.20;;;;;;;21.48;57.37;98540.59;5018726;28;20063;-73
2023/05/27 01:34:46;;;;;;;5.47;2.28;;;;;;;21.48;57.57;98545.91;5036079;28;20113;-73
2023/05/27 01:37:13;;;;;;;3.40;2.22;;;;;;;21.45;57.28;98543.63;5053077;28;20102;-73
2023/05/27 01:39:39;;;;;;;3.03;1.95;;;;;;;21.47;57.22;98540.75;5034737;28;20110;-73
2023/05/27 01:42:06;;;;;;;2.65;2.30;;;;;;;21.45;57.23;98540.16;5051537;28;20041;-73
2023/05/27 01:44:31;;;;;;;4.05;2.22;;;;;;;21.41;57.23;98541.53;5034683;28;20041;-73
2023/05/27 01:47:00;;;;;;;5.65;2.13;;;;;;;21.43;57.69;98547.50;5034648;28;20036;-74
2023/05/27 01:49:26;;;;;;;2.95;1.95;;;;;;;21.40;57.71;98543.38;5035053;28;20397;-73
2023/05/27 01:51:51;;;;;;;2.80;2.00;;;;;;;21.40;57.75;98543.38;5034896;28;20154;-73
2023/05/27 01:54:17;;;;;;;3.10;2.15;;;;;;;21.42;57.45;98546.66;5034632;28;20032;-73
2023/05/27 01:56:42;;;;;;;3.63;2.00;;;;;;;21.44;57.54;98557.06;5051111;28;20056;-73
2023/05/27 01:59:08;;;;;;;3.75;1.88;;;;;;;21.43;57.18;98548.31;5034654;28;20032;-74
2023/05/27 02:01:34;;;;;;;3.25;2.10;;;;;;;21.40;57.48;98546.03;5052241;28;20469;-73
2023/05/27 02:03:59;;;;;;;3.08;1.90;;;;;;;21.42;57.25;98557.28;5034833;28;20041;-73
2023/05/27 02:06:26;;;;;;;6.95;2.33;;;;;;;21.42;57.34;98554.63;5052252;28;20025;-73
2023/05/27 02:08:51;;;;;;;4.55;2.33;;;;;;;21.39;57.10;98560.31;5018153;28;20044;-73
2023/05/27 02:11:17;;;;;;;3.30;2.20;;;;;;;21.39;57.12;98557.66;5034660;28;20033;-73
2023/05/27 02:13:42;;;;;;;4.18;2.17;;;;;;;21.40;56.93;98567.28;5034351;28;20048;-73
2023/05/27 02:16:08;;;;;;;3.75;2.28;;;;;;;21.38;57.05;98571.13;5051139;28;20028;-73
2023/05/27 02:18:34;;;;;;;3.25;2.45;;;;;;;21.40;57.20;98566.47;5051395;28;20111;-73
2023/05/27 02:21:05;;;;;;;4.38;1.90;;;;;;;21.40;57.10;98569.94;5034635;28;20032;-73
2023/05/27 02:23:31;;;;;;;3.95;2.40;;;;;;;21.39;57.06;98570.94;5052613;28;20029;-73
2023/05/27 02:25:56;;;;;;;6.10;2.85;;;;;;;21.39;56.90;98580.72;5033963;28;20056;-73
2023/05/27 02:28:22;;;;;;;4.28;2.40;;;;;;;21.38;56.75;98579.94;5017761;28;20484;-73
2023/05/27 02:30:47;;;;;;;5.47;2.47;;;;;;;21.35;56.92;98572.34;5051199;28;20063;-75
2023/05/27 02:33:13;;;;;;;5.93;2.45;;;;;;;21.36;56.98;98573.97;5034736;28;20087;-75
2023/05/27 02:35:38;;;;;;;3.60;2.45;;;;;;;21.34;57.11;98570.69;5017864;28;20178;-75
2023/05/27 02:38:04;;;;;;;6.75;2.30;;;;;;;21.34;57.02;98568.03;5033823;28;20508;-75
2023/05/27 02:40:29;;;;;;;3.45;2.00;;;;;;;21.35;57.03;98577.66;5034233;28;20036;-75
2023/05/27 02:42:55;;;;;;;4.03;2.40;;;;;;;21.38;56.90;98574.63;5034200;28;20032;-78
2023/05/27 02:45:21;;;;;;;3.25;2.30;;;;;;;21.36;56.71;98568.66;5034777;28;20041;-77
2023/05/27 02:47:46;;;;;;;3.30;2.08;;;;;;;21.38;56.71;98576.44;5034218;28;20049;-76
2023/05/27 02:50:12;;;;;;;3.92;1.90;;;;;;;21.42;56.86;98591.78;5034158;28;20416;-76
2023/05/27 02:52:37;;;;;;;2.67;2.20;;;;;;;21.44;57.04;98591.59;5050944;28;20036;-76
2023/05/27 02:55:03;;;;;;;4.28;2.17;;;;;;;21.44;56.68;98597.75;5050911;28;20484;-76
2023/05/27 02:57:29;;;;;;;5.13;2.65;;;;;;;21.45;56.76;98598.56;5034521;28;20098;-75
2023/05/27 02:59:54;;;;;;;3.50;2.38;;;;;;;21.46;56.47;98598.38;5051079;28;20464;-75
2023/05/27 03:02:20;;;;;;;3.78;2.13;;;;;;;21.46;56.71;98598.38;5034344;28;20033;-75
2023/05/27 03:04:47;;;;;;;3.85;2.15;;;;;;;21.48;56.46;98598.19;5052030;28;20526;-76
2023/05/27 03:07:13;;;;;;;3.92;2.10;;;;;;;21.47;56.58;98607.16;5034363;28;20033;-75
2023/05/27 03:09:38;;;;;;;3.05;2.00;;;;;;;21.48;56.40;98600.84;5054552;28;20515;-75
2023/05/27 03:12:05;;;;;;;3.88;2.58;;;;;;;21.47;56.54;98596.53;5054181;28;20045;-75
2023/05/27 03:14:31;;;;;;;5.30;2.30;;;;;;;21.48;56.55;98593.72;5037933;28;20048;-75
2023/05/27 03:16:56;;;;;;;3.13;2.10;;;;;;;21.45;56.49;98585.28;5037838;28;20029;-75
2023/05/27 03:19:22;;;;;;;4.80;2.20;;;;;;;21.45;56.36;98586.09;5037657;28;20083;-75
2023/05/27 03:21:47;;;;;;;4.15;2.38;;;;;;;21.48;56.38;98593.72;5037628;28;20389;-75
2023/05/27 03:24:13;;;;;;;5.60;2.58;;;;;;;21.49;56.16;98591.88;5021188;28;20106;-78
2023/05/27 03:26:38;;;;;;;3.47;2.22;;;;;;;21.44;56.18;98586.28;5053530;28;20048;-78
2023/05/27 03:29:04;;;;;;;4.68;2.38;;;;;;;21.47;55.92;98596.53;5038175;28;20041;-76
2023/05/27 03:31:30;;;;;;;3.42;2.13;;;;;;;21.48;55.97;98590.22;5037494;28;20045;-76
2023/05/27 03:33:55;;;;;;;4.03;2.10;;;;;;;21.49;55.72;98592.72;5037888;28;20113;-76
2023/05/27 03:36:21;;;;;;;3.40;2.20;;;;;;;21.50;55.97;98586.38;5037234;28;20033;-76
2023/05/27 03:38:46;;;;;;;2.67;1.88;;;;;;;21.52;55.44;98593.34;5054636;28;20048;-76
2023/05/27 03:41:12;;;;;;;3.78;2.15;;;;;;;21.54;55.64;98597.44;5053951;28;20495;-76
2023/05/27 03:43:37;;;;;;;2.60;1.92;;;;;;;21.58;54.54;98603.19;5037673;28;20159;-75
2023/05/27 03:46:03;;;;;;;4.93;2.00;;;;;;;21.61;55.16;98600.97;5054131;28;20036;-76
2023/05/27 03:48:28;;;;;;;3.75;2.13;;;;;;;21.64;55.22;98597.13;5054978;28;20480;-76
2023/05/27 03:50:54;;;;;;;4.07;1.90;;;;;;;21.67;54.83;98591.44;5054150;28;20044;-75
2023/05/27 03:53:20;;;;;;;3.22;2.08;;;;;;;21.69;54.53;98607.97;5037407;28;20025;-74
2023/05/27 03:55:45;;;;;;;2.72;2.03;;;;;;;21.70;54.59;98604.31;5053747;28;20059;-75
2023/05/27 03:58:13;;;;;;;3.30;1.80;;;;;;;21.71;54.34;98608.59;5053638;28;20063;-76
2023/05/27 04:00:39;;;;;;;2.35;1.77;;;;;;;21.73;54.27;98611.91;5053516;28;20530;-76
2023/05/27 04:03:05;;;;;;;2.60;1.90;;;;;;;21.75;54.18;98612.53;5020584;28;20040;-76
2023/05/27 04:05:30;;;;;;;2.83;1.70;;;;;;;21.74;54.31;98612.72;5054739;28;20029;-76
2023/05/27 04:07:56;;;;;;;2.70;1.98;;;;;;;21.78;54.16;98617.47;5036730;28;20017;-76
2023/05/27 04:10:21;;;;;;;2.60;1.90;;;;;;;21.79;54.12;98613.81;5037405;28;20032;-76
2023/05/27 04:12:47;;;;;;;3.78;2.17;;;;;;;21.78;53.85;98616.66;5037303;28;20416;-75
2023/05/27 04:15:12;;;;;;;3.92;2.22;;;;;;;21.81;54.16;98614.41;5053461;28;20476;-76
2023/05/27 04:17:38;;;;;;;4.68;2.00;;;;;;;21.84;53.81;98626.50;5053273;28;20508;-76
2023/05/27 04:20:13;;;;;;;2.53;1.70;;;;;;;21.84;53.62;98626.50;5019758;28;20083;-77
2023/05/27 04:22:42;;;;;;;2.97;1.80;;;;;;;21.71;53.11;98619.22;5038167;28;20025;-79
2023/05/27 04:25:08;;;;;;;2.83;1.70;;;;;;;21.68;52.73;98628.44;5052724;28;20542;-78
2023/05/27 04:27:33;;;;;;;2.85;1.70;;;;;;;21.69;52.38;98629.22;5037005;28;20016;-77
2023/05/27 04:29:59;;;;;;;3.67;2.08;;;;;;;21.67;51.98;98623.31;5053427;28;20477;-77
2023/05/27 04:32:27;;;;;;;2.67;1.80;;;;;;;21.69;52.23;98622.06;5019958;28;20033;-75
2023/05/27 04:34:53;;;;;;;2.90;1.90;;;;;;;21.72;52.13;98623.53;5052825;28;20061;-75
2023/05/27 04:37:19;;;;;;;3.00;1.90;;;;;;;21.75;51.71;98628.47;5035836;28;20503;-75
2023/05/27 04:39:46;;;;;;;2.72;1.80;;;;;;;21.77;51.55;98617.66;5052571;28;20037;-75
2023/05/27 04:42:12;;;;;;;4.18;1.73;;;;;;;21.80;52.39;98619.94;5035985;28;20565;-76
2023/05/27 04:44:38;;;;;;;5.85;1.90;;;;;;;21.81;52.07;98616.28;5052585;28;20511;-77
2023/05/27 04:47:05;;;;;;;2.85;1.83;;;;;;;21.86;51.97;98617.31;5035885;28;20049;-70
2023/05/27 04:49:31;;;;;;;5.85;2.13;;;;;;;22.02;56.27;98623.38;5037495;28;20443;-75
2023/05/27 04:51:57;;;;;;;5.75;2.00;;;;;;;22.16;54.32;98632.25;5052287;28;20025;-72
2023/05/27 04:54:23;;;;;;;7.90;2.05;;;;;;;22.26;56.37;98638.03;5019303;28;20032;-77
2023/05/27 04:56:51;;;;;;;10.90;2.00;;;;;;;22.46;54.73;98624.09;5019158;28;20111;-74
2023/05/27 04:59:19;;;;;;;15.70;1.85;;;;;;;22.55;53.18;98634.34;5035930;28;20040;-74
2023/05/27 05:02:21;;;;;;;;;;;;;;;22.58;52.82;98638.44;5020168;28;20148;-74
2023/05/27 05:04:37;;;;;;;3.65;2.05;;;;;;;22.54;51.74;98639.88;5049873;28;19909;-73
2023/05/27 05:07:03;;;;;;;5.47;1.90;;;;;;;22.57;51.24;98644.81;5031743;28;20170;-78
2023/05/27 05:09:29;;;;;;;4.85;1.80;;;;;;;22.55;50.83;98642.34;5015780;28;20413;-72
2023/05/27 05:11:55;;;;;;;14.05;2.55;;;;;;;22.63;56.05;98641.34;5000963;28;20124;-71
2023/05/27 05:14:20;;;;;;;14.10;2.15;;;;;;;22.75;56.29;98629.09;5015490;28;20037;-70
2023/05/27 05:16:46;;;;;;;14.02;2.50;;;;;;;22.83;55.00;98638.75;5016130;28;20080;-75
2023/05/27 05:19:12;;;;;;;22.00;3.30;;;;;;;22.82;54.39;98642.47;5032744;28;20053;-78
2023/05/27 05:21:37;;;;;;;21.65;6.28;;;;;;;22.80;52.33;98647.16;5018714;28;20134;-75
2023/05/27 05:24:03;;;;;;;33.72;9.25;;;;;;;22.83;51.96;98646.75;5018712;28;20108;-75
2023/05/27 05:26:29;;;;;;;36.13;14.07;;;;;;;22.80;51.17;98651.66;5052844;28;20045;-73
2023/05/27 05:28:55;;;;;;;33.38;15.13;;;;;;;22.79;50.61;98647.34;5034650;28;20040;-73
2023/05/27 05:31:20;;;;;;;36.47;14.93;;;;;;;22.86;50.11;98664.16;5017780;28;20087;-73
2023/05/27 05:33:46;;;;;;;44.17;19.17;;;;;;;22.89;49.88;98667.25;5035191;28;20071;-72
2023/05/27 05:36:11;;;;;;;15.88;5.03;;;;;;;23.05;57.05;98673.25;5051604;28;20036;-75
2023/05/27 05:38:37;;;;;;;28.73;8.77;;;;;;;23.13;53.17;98662.44;5034980;28;20082;-73
2023/05/27 05:41:03;;;;;;;22.27;7.32;;;;;;;23.22;51.10;98669.25;5034726;28;20118;-70
2023/05/27 05:43:28;;;;;;;16.70;7.30;;;;;;;23.28;50.37;98671.09;5051737;28;20480;-72
2023/05/27 05:45:54;;;;;;;11.52;5.32;;;;;;;23.31;49.16;98675.22;5050898;28;20036;-72
2023/05/27 05:48:20;;;;;;;12.90;5.40;;;;;;;23.37;48.94;98674.41;5017695;28;20542;-71
2023/05/27 05:50:45;;;;;;;9.65;5.32;;;;;;;23.35;48.84;98678.28;5050955;28;20043;-73
2023/05/27 05:53:11;;;;;;;10.75;4.68;;;;;;;23.37;48.62;98682.41;5051832;28;20029;-82
2023/05/27 05:55:36;;;;;;;10.30;4.22;;;;;;;23.33;48.21;98673.16;5029144;28;20063;-78
2023/05/27 05:58:02;;;;;;;10.32;4.53;;;;;;;23.35;47.95;98683.63;5015945;28;20059;-77
2023/05/27 06:00:28;;;;;;;7.53;3.72;;;;;;;23.34;48.22;98689.97;5049529;28;20028;-73
2023/05/27 06:02:53;;;;;;;5.70;3.22;;;;;;;23.36;48.34;98687.94;5051067;28;20032;-79
2023/05/27 06:05:19;;;;;;;6.55;3.40;;;;;;;23.35;48.47;98696.94;5050735;28;20482;-76
2023/05/27 06:07:45;;;;;;;6.80;3.42;;;;;;;23.35;48.43;98692.41;5033835;28;20032;-76
2023/05/27 06:10:10;;;;;;;10.85;3.63;;;;;;;23.35;48.28;98699.59;5033878;28;20048;-79
2023/05/27 06:12:36;;;;;;;7.22;3.20;;;;;;;23.24;47.87;98701.00;5033773;28;20036;-76
2023/05/27 06:15:02;;;;;;;5.75;2.65;;;;;;;23.23;48.20;98707.34;5016947;28;20029;-76
2023/05/27 06:17:28;;;;;;;7.18;2.90;;;;;;;23.23;48.11;98704.66;5016870;28;20040;-77
2023/05/27 06:19:53;;;;;;;4.65;2.55;;;;;;;23.17;47.85;98697.50;5049810;28;20095;-77
2023/05/27 06:22:18;;;;;;;5.72;2.47;;;;;;;23.13;48.30;98697.06;5033096;28;20047;-77
2023/05/27 06:24:44;;;;;;;7.32;2.80;;;;;;;23.11;48.43;98702.59;5016044;28;20553;-78
2023/05/27 06:27:10;;;;;;;6.70;3.03;;;;;;;23.08;48.51;98707.50;5031772;28;20049;-75
2023/05/27 06:29:35;;;;;;;6.70;2.97;;;;;;;23.10;50.35;98714.28;5048138;28;20491;-79
2023/05/27 06:32:01;;;;;;;8.25;3.22;;;;;;;23.08;50.33;98707.50;5033497;28;20063;-75
2023/05/27 06:34:26;;;;;;;6.40;2.80;;;;;;;23.05;50.06;98710.53;5034061;28;20071;-79
2023/05/27 06:36:52;;;;;;;6.78;3.13;;;;;;;23.02;50.22;98703.75;5049547;28;20094;-81
2023/05/27 06:39:17;;;;;;;7.72;2.60;;;;;;;22.98;50.11;98707.00;5032995;28;20515;-82
2023/05/27 06:41:43;;;;;;;5.13;2.50;;;;;;;22.91;50.10;98707.81;5032782;28;20033;-83
2023/05/27 06:44:08;;;;;;;4.55;2.63;;;;;;;22.86;50.35;98702.25;5031427;28;20088;-82
2023/05/27 06:46:34;;;;;;;7.97;2.67;;;;;;;22.87;50.44;98708.41;5018090;28;20029;-79
2023/05/27 06:48:59;;;;;;;8.65;3.03;;;;;;;22.83;50.51;98710.63;5053171;28;20039;-80
2023/05/27 06:51:26;;;;;;;5.60;2.60;;;;;;;22.77;50.69;98706.91;5035012;28;20439;-80
2023/05/27 06:53:52;;;;;;;5.53;2.80;;;;;;;22.75;50.71;98705.47;5035997;28;20056;-79
2023/05/27 06:56:18;;;;;;;7.05;2.60;;;;;;;22.73;50.79;98720.81;5019662;28;20029;-76
2023/05/27 06:58:45;;;;;;;8.23;2.83;;;;;;;22.65;51.10;98710.34;5052739;28;20021;-77
2023/05/27 07:01:10;;;;;;;6.18;2.97;;;;;;;22.62;51.12;98711.53;5016662;28;20084;-77
2023/05/27 07:03:36;;;;;;;4.97;2.50;;;;;;;22.59;51.43;98718.06;5029877;28;20076;-76
2023/05/27 07:06:01;;;;;;;5.03;2.42;;;;;;;22.57;51.68;98724.59;5019934;28;20037;-77
2023/05/27 07:08:27;;;;;;;3.88;2.53;;;;;;;22.55;51.49;98726.63;5053358;28;20484;-76
2023/05/27 07:10:52;;;;;;;8.40;2.55;;;;;;;22.48;51.74;98723.91;5016743;28;20053;-72
2023/05/27 07:13:18;;;;;;;6.05;2.50;;;;;;;22.47;51.83;98722.28;5047643;28;20033;-73
2023/05/27 07:15:43;;;;;;;4.53;2.50;;;;;;;22.45;52.06;98729.63;5054095;28;20033;-73
2023/05/27 07:18:09;;;;;;;6.88;2.65;;;;;;;22.43;51.88;98728.19;5051637;28;20032;-77
2023/05/27 07:20:34;;;;;;;4.97;2.47;;;;;;;22.43;52.38;98726.34;5036176;28;20049;-82
2023/05/27 07:23:00;;;;;;;6.97;2.70;;;;;;;22.43;52.27;98734.31;5019286;28;20037;-74
2023/05/27 07:25:26;;;;;;;11.15;3.25;;;;;;;22.53;56.47;98736.63;5053761;28;20407;-72
2023/05/27 07:27:51;;;;;;;7.43;2.75;;;;;;;22.57;55.02;98737.91;5036670;28;20021;-72
2023/05/27 07:30:17;;;;;;;9.30;2.95;;;;;;;22.54;54.49;98733.78;5052837;28;20033;-78
2023/05/27 07:32:42;;;;;;;4.28;2.50;;;;;;;22.54;54.04;98739.09;5036526;28;20395;-75
2023/05/27 07:35:08;;;;;;;5.03;2.50;;;;;;;22.53;53.90;98742.81;5036627;28;20041;-77
2023/05/27 07:37:33;;;;;;;8.65;2.70;;;;;;;22.56;54.94;98744.22;5054632;28;20037;-75
2023/05/27 07:39:59;;;;;;;16.63;2.72;;;;;;;22.56;54.88;98737.06;5036254;28;20041;-77
2023/05/27 07:42:24;;;;;;;7.40;2.65;;;;;;;22.54;54.72;98741.75;5053973;28;20526;-77
2023/05/27 07:44:50;;;;;;;7.03;2.60;;;;;;;22.52;54.42;98738.50;5052879;28;20124;-77
2023/05/27 07:47:15;;;;;;;8.48;2.47;;;;;;;22.52;55.56;98737.69;5052765;28;20025;-75
2023/05/27 07:49:41;;;;;;;10.55;2.97;;;;;;;22.62;57.97;98737.31;5053884;28;20059;-68
2023/05/27 07:52:06;;;;;;;14.77;3.05;;;;;;;22.75;57.41;98742.72;5051714;28;20492;-81
2023/05/27 07:54:32;;;;;;;15.70;2.92;;;;;;;22.89;57.51;98740.97;5018498;28;20029;-70
2023/05/27 07:56:57;;;;;;;13.77;2.90;;;;;;;22.86;56.15;98744.81;5053722;28;20480;-77
2023/05/27 07:59:23;;;;;;;6.40;2.85;;;;;;;22.84;55.70;98741.53;5052910;28;20037;-79
2023/05/27 08:01:49;;;;;;;9.68;2.70;;;;;;;22.78;55.27;98734.34;5036201;28;20484;-76
2023/05/27 08:04:15;;;;;;;5.70;2.22;;;;;;;22.74;54.92;98733.09;5036440;28;20056;-81
2023/05/27 08:06:41;;;;;;;8.65;2.72;;;;;;;22.73;54.74;98734.13;5020212;28;20452;-74
2023/05/27 08:09:08;;;;;;;4.78;2.40;;;;;;;22.67;54.91;98735.72;5054239;28;20094;-74
2023/05/27 08:11:33;;;;;;;7.88;2.70;;;;;;;22.69;54.56;98736.34;5052766;28;20129;-73
2023/05/27 08:13:59;;;;;;;4.65;2.17;;;;;;;22.74;54.66;98741.91;5036252;28;20115;-76
2023/05/27 08:16:24;;;;;;;6.68;2.60;;;;;;;22.77;54.63;98740.66;5054321;28;20025;-80
2023/05/27 08:18:50;;;;;;;4.78;2.38;;;;;;;22.82;54.46;98748.06;5036014;28;20429;-80
2023/05/27 08:21:16;;;;;;;6.80;2.17;;;;;;;22.86;54.31;98744.00;5034314;28;20025;-79
2023/05/27 08:23:42;;;;;;;6.07;2.08;;;;;;;22.89;54.18;98752.41;5052333;28;20039;-79
2023/05/27 08:26:08;;;;;;;3.55;1.92;;;;;;;22.92;54.29;98753.88;5054479;28;20056;-79
2023/05/27 08:28:36;;;;;;;4.63;2.20;;;;;;;22.98;53.94;98752.25;5036989;28;20025;-79
2023/05/27 08:31:03;;;;;;;4.10;2.17;;;;;;;23.01;53.77;98746.53;5054551;28;20119;-80
2023/05/27 08:33:29;;;;;;;6.70;2.22;;;;;;;23.06;53.82;98749.44;5053150;28;20056;-80
2023/05/27 08:35:55;;;;;;;4.13;2.50;;;;;;;23.17;53.40;98748.91;5052939;28;20118;-79
2023/05/27 08:38:21;;;;;;;6.82;3.38;;;;;;;23.26;53.06;98750.38;5052743;28;20037;-79
2023/05/27 08:40:47;;;;;;;4.40;3.05;;;;;;;23.32;52.98;98747.94;5036273;28;20052;-78
2023/05/27 08:43:13;;;;;;;6.90;4.03;;;;;;;23.41;52.55;98741.41;5036358;28;20039;-78
2023/05/27 08:45:40;;;;;;;11.25;8.90;;;;;;;23.55;52.01;98744.94;5053167;28;20384;-79
2023/05/27 08:48:08;;;;;;;13.37;9.47;;;;;;;23.58;51.90;98737.38;5052940;28;20401;-78
2023/05/27 08:50:33;;;;;;;13.40;9.98;;;;;;;23.61;51.73;98734.31;5036036;28;20773;-80
2023/05/27 08:52:58;;;;;;;11.65;8.20;;;;;;;23.75;51.49;98731.66;5053563;28;20040;-78
2023/05/27 08:55:24;;;;;;;9.63;7.30;;;;;;;23.84;51.04;98741.13;5019108;28;20047;-78
2023/05/27 08:57:51;;;;;;;10.20;7.43;;;;;;;23.89;50.72;98727.19;5035840;28;20082;-78
2023/05/27 09:00:17;;;;;;;9.65;7.82;;;;;;;23.93;50.67;98723.94;5036258;28;20454;-79
2023/05/27 09:02:42;;;;;;;12.93;8.80;;;;;;;23.98;50.35;98718.78;5053761;28;20029;-78
2023/05/27 09:05:09;;;;;;;9.68;7.63;;;;;;;23.96;50.25;98715.53;5052150;28;20041;-80
2023/05/27 09:07:35;;;;;;;8.80;6.95;;;;;;;24.03;49.55;98713.66;5051212;28;20166;-81
2023/05/27 09:10:01;;;;;;;8.35;6.70;;;;;;;24.08;49.07;98715.72;5019354;28;20033;-78
2023/05/27 09:12:26;;;;;;;9.77;5.53;;;;;;;24.10;48.77;98702.19;5052236;28;20041;-78
2023/05/27 09:14:53;;;;;;;7.80;5.35;;;;;;;24.14;48.68;98708.75;5053576;28;20135;-78
2023/05/27 09:17:19;;;;;;;6.53;5.10;;;;;;;24.20;48.37;98698.06;5051953;28;20449;-78
2023/05/27 09:19:46;;;;;;;10.57;4.80;;;;;;;24.22;48.19;98689.88;5035807;28;20037;-79
2023/05/27 09:22:22;;;;;;;5.95;3.95;;;;;;;24.27;48.12;98683.91;5035314;28;20044;-79
2023/05/27 09:24:48;;;;;;;5.95;4.15;;;;;;;24.29;48.18;98693.38;5035595;28;20029;-79
2023/05/27 09:27:14;;;;;;;7.10;3.70;;;;;;;24.32;48.21;98686.78;5053661;28;20064;-82
2023/05/27 09:29:40;;;;;;;5.40;3.90;;;;;;;24.34;47.95;98690.06;5052784;28;20029;-83
2023/05/27 09:32:07;;;;;;;4.22;3.30;;;;;;;24.33;47.74;98680.44;5019009;28;20044;-82
2023/05/27 09:34:38;;;;;;;3.47;2.80;;;;;;;24.36;47.53;98683.50;5035295;28;20028;-81
2023/05/27 09:37:04;;;;;;;3.88;3.00;;;;;;;24.46;47.64;98691.06;5051741;28;20484;-82
2023/05/27 09:39:29;;;;;;;4.45;3.10;;;;;;;24.50;47.50;98675.47;5052349;28;20036;-81
2023/05/27 09:41:55;;;;;;;4.82;2.95;;;;;;;24.56;46.92;98675.47;5035197;28;20071;-82
2023/05/27 09:44:36;;;;;;;5.88;3.15;;;;;;;24.68;46.88;98678.31;5035708;28;20033;-84
2023/05/27 09:47:03;;;;;;;3.95;2.78;;;;;;;24.82;46.58;98667.59;5021563;28;20021;-84
2023/05/27 09:49:29;;;;;;;4.10;2.67;;;;;;;24.94;46.12;98671.25;5052128;28;20052;-83
2023/05/27 09:51:55;;;;;;;5.82;2.90;;;;;;;25.14;45.37;98667.66;5035294;28;20037;-78
2023/05/27 09:54:20;;;;;;;4.90;2.60;;;;;;;25.33;45.26;98653.41;5051351;28;20029;-77
2023/05/27 09:56:46;;;;;;;5.70;2.35;;;;;;;25.59;44.71;98654.28;5034762;28;20025;-78
2023/05/27 09:59:12;;;;;;;5.72;2.78;;;;;;;25.80;44.32;98656.56;5035143;28;20025;-79
2023/05/27 10:01:37;;;;;;;4.72;2.20;;;;;;;26.13;43.54;98663.53;5051416;28;20099;-79
2023/05/27 10:04:03;;;;;;;5.18;2.38;;;;;;;26.44;42.88;98658.28;5018611;28;20079;-78
2023/05/27 10:06:29;;;;;;;5.75;3.67;;;;;;;26.69;42.37;98647.53;5051554;28;20393;-79
2023/05/27 10:08:58;;;;;;;6.38;3.53;;;;;;;26.89;42.43;98648.13;5035185;28;20045;-79
2023/05/27 10:11:26;;;;;;;5.53;3.83;;;;;;;27.15;41.82;98654.19;5035003;28;20388;-78
2023/05/27 10:13:51;;;;;;;6.47;3.60;;;;;;;27.35;41.22;98653.13;5051584;28;20040;-78
2023/05/27 10:16:21;;;;;;;7.25;3.58;;;;;;;27.55;40.76;98650.97;5051413;28;20037;-79
2023/05/27 10:18:52;;;;;;;6.95;3.22;;;;;;;27.80;40.13;98649.97;5052287;28;20073;-78
2023/05/27 10:21:21;;;;;;;7.93;3.28;;;;;;;27.98;39.53;98641.84;5052678;28;20025;-79
2023/05/27 10:23:56;;;;;;;13.93;2.72;;;;;;;28.17;40.40;98641.72;5044163;28;20029;-80
2023/05/27 10:26:41;;;;;;;3.30;2.42;;;;;;;28.29;41.73;98642.53;5015804;28;20052;-77
2023/05/27 10:29:09;;;;;;;5.72;2.55;;;;;;;28.32;40.96;98634.00;5017729;28;20116;-77
2023/05/27 10:31:38;;;;;;;3.80;2.53;;;;;;;28.34;40.05;98637.28;5050807;28;20048;-77
2023/05/27 10:34:04;;;;;;;5.40;2.58;;;;;;;28.43;39.48;98639.59;5029283;28;20036;-81
2023/05/27 10:36:31;;;;;;;3.63;2.50;;;;;;;28.53;40.45;98639.81;5017780;28;20021;-79
2023/05/27 10:38:58;;;;;;;15.40;2.70;;;;;;;28.65;41.11;98643.31;5050987;28;20126;-78
2023/05/27 10:41:24;;;;;;;5.50;2.70;;;;;;;28.69;40.30;98640.97;5052385;28;20036;-81
2023/05/27 10:43:57;;;;;;;7.93;2.80;;;;;;;28.80;40.23;98633.94;5052089;28;20033;-76
2023/05/27 10:46:22;;;;;;;4.80;2.45;;;;;;;28.79;39.23;98629.63;5048028;28;20051;-76
2023/05/27 10:48:48;;;;;;;12.07;2.60;;;;;;;28.82;39.95;98640.69;5050168;28;20029;-76
2023/05/27 10:51:13;;;;;;;7.22;2.72;;;;;;;28.81;39.39;98622.97;5051377;28;20044;-89
2023/05/27 10:53:39;;;;;;;6.80;2.78;;;;;;;28.74;38.58;98626.84;5033645;28;20404;-81
2023/05/27 10:56:05;;;;;;;4.60;2.65;;;;;;;28.72;37.88;98610.13;5050492;28;20029;-78
2023/05/27 10:58:34;;;;;;;3.80;2.30;;;;;;;28.85;37.36;98613.34;5051087;28;20032;-76
2023/05/27 11:01:00;;;;;;;4.47;2.25;;;;;;;28.90;37.80;98618.00;5049435;28;20137;-74
2023/05/27 11:03:28;;;;;;;7.20;2.40;;;;;;;28.79;38.24;98610.81;5049768;28;20036;-77
2023/05/27 11:05:58;;;;;;;5.65;2.47;;;;;;;28.71;38.40;98617.38;5033512;28;20045;-74
2023/05/27 11:08:23;;;;;;;8.65;2.65;;;;;;;28.71;38.55;98612.00;5049403;28;20041;-83
2023/05/27 11:10:49;;;;;;;5.60;2.38;;;;;;;28.64;38.89;98600.59;5051105;28;20041;-80
2023/05/27 11:13:14;;;;;;;6.68;2.35;;;;;;;28.49;39.03;98601.06;5030118;28;20044;-74
2023/05/27 11:15:41;;;;;;;14.70;2.65;;;;;;;28.29;39.46;98602.28;5050173;28;20033;-79
2023/05/27 11:18:08;;;;;;;6.63;2.20;;;;;;;28.23;39.15;98608.59;5029708;28;20037;-78
2023/05/27 11:20:35;;;;;;;4.70;2.38;;;;;;;28.15;39.44;98608.94;5046359;28;20572;-77
2023/05/27 11:23:01;;;;;;;9.50;2.60;;;;;;;28.06;39.84;98605.78;5029434;28;20033;-79
2023/05/27 11:25:26;;;;;;;7.80;2.40;;;;;;;27.98;41.33;98595.41;5012442;28;20056;-76
2023/05/27 11:27:52;;;;;;;6.32;2.42;;;;;;;27.94;41.34;98595.06;5045846;28;20041;-89